createdAt,value
2017-12-04T00:01:42.890Z,5.70
2017-12-04T00:04:11.182Z,5.70
2017-12-04T00:06:40.297Z,5.70
2017-12-04T00:09:09.715Z,5.80
2017-12-04T00:11:37.998Z,5.80
2017-12-04T00:14:06.346Z,5.80
2017-12-04T00:16:34.629Z,5.80
2017-12-04T00:19:03.677Z,5.90
2017-12-04T00:21:32.025Z,5.90
2017-12-04T00:24:00.697Z,5.90
2017-12-04T00:26:28.977Z,5.90
2017-12-04T00:28:58.094Z,5.90
2017-12-04T00:33:56.319Z,5.90
2017-12-04T00:36:24.673Z,5.90
2017-12-04T00:38:52.958Z,5.90
2017-12-04T00:41:21.249Z,5.90
2017-12-04T00:43:50.734Z,6.00
2017-12-04T00:46:19.041Z,6.00
2017-12-04T00:48:47.329Z,6.00
2017-12-04T00:51:15.674Z,6.10
2017-12-04T00:56:13.915Z,6.00
2017-12-04T00:58:43.405Z,6.00
2017-12-04T01:01:11.694Z,6.00
2017-12-04T01:03:40.749Z,6.00
2017-12-04T01:08:39.745Z,6.00
2017-12-04T01:11:08.034Z,6.10
2017-12-04T01:13:37.885Z,6.10
2017-12-04T01:16:06.179Z,6.10
2017-12-04T01:18:35.234Z,6.20
2017-12-04T01:21:04.338Z,6.30
2017-12-04T01:23:33.758Z,6.20
2017-12-04T01:26:02.822Z,6.20
2017-12-04T01:28:31.166Z,6.20
2017-12-04T01:33:29.360Z,6.20
2017-12-04T01:35:57.714Z,6.20
2017-12-04T01:40:55.910Z,6.20
2017-12-04T01:43:27.985Z,6.10
2017-12-04T01:45:56.670Z,6.10
2017-12-04T01:48:25.718Z,6.10
2017-12-04T01:50:55.581Z,6.10
2017-12-04T01:53:23.885Z,6.10
2017-12-04T01:55:52.170Z,6.10
2017-12-04T01:58:21.652Z,6.10
2017-12-04T02:00:50.706Z,6.20
2017-12-04T02:03:18.993Z,6.20
2017-12-04T02:05:47.332Z,6.30
2017-12-04T02:08:16.875Z,6.30
2017-12-04T02:10:45.170Z,6.30
2017-12-04T02:13:13.658Z,6.30
2017-12-04T02:15:43.446Z,6.30
2017-12-04T02:18:12.934Z,6.30
2017-12-04T02:20:41.618Z,6.40
2017-12-04T02:23:10.421Z,6.30
2017-12-04T02:25:39.158Z,6.40
2017-12-04T02:28:08.579Z,6.40
2017-12-04T02:30:37.627Z,6.30
2017-12-04T02:33:05.971Z,6.30
2017-12-04T02:35:35.775Z,6.30
2017-12-04T02:38:35.985Z,6.30
2017-12-04T02:41:04.268Z,6.30
2017-12-04T02:46:02.129Z,6.30
2017-12-04T02:48:30.418Z,6.30
2017-12-04T02:50:58.709Z,6.30
2017-12-04T02:53:27.835Z,6.30
2017-12-04T02:55:56.978Z,6.40
2017-12-04T02:58:25.262Z,6.30
2017-12-04T03:00:53.630Z,6.40
2017-12-04T03:03:21.918Z,6.40
2017-12-04T03:05:50.225Z,6.40
2017-12-04T03:08:18.561Z,6.40
2017-12-04T03:10:47.252Z,6.40
2017-12-04T03:13:15.542Z,6.40
2017-12-04T03:15:43.910Z,6.40
2017-12-04T03:18:12.200Z,6.40
2017-12-04T03:20:40.482Z,6.40
2017-12-04T03:23:10.642Z,6.50
2017-12-04T03:25:38.921Z,6.50
2017-12-04T03:28:07.992Z,6.50
2017-12-04T03:30:36.403Z,6.60
2017-12-04T03:33:04.731Z,6.50
2017-12-04T03:35:33.066Z,6.50
2017-12-04T03:38:02.187Z,6.50
2017-12-04T03:40:31.266Z,6.20
2017-12-04T03:42:59.579Z,6.50
2017-12-04T03:45:27.934Z,6.60
2017-12-04T03:47:56.218Z,6.60
2017-12-04T03:50:24.893Z,6.50
2017-12-04T03:52:53.237Z,6.60
2017-12-04T03:55:21.526Z,6.60
2017-12-04T03:57:50.634Z,6.60
2017-12-04T04:00:18.990Z,6.60
2017-12-04T04:02:48.051Z,6.50
2017-12-04T04:05:16.334Z,6.40
2017-12-04T04:07:44.690Z,6.40
2017-12-04T04:10:12.983Z,6.50
2017-12-04T04:12:42.414Z,6.50
2017-12-04T04:15:10.763Z,6.40
2017-12-04T04:17:39.041Z,6.50
2017-12-04T04:20:07.352Z,6.60
2017-12-04T04:22:35.730Z,6.60
2017-12-04T04:25:04.034Z,6.60
2017-12-04T04:27:32.351Z,6.60
2017-12-04T04:30:01.490Z,6.60
2017-12-04T04:32:29.838Z,6.60
2017-12-04T04:34:59.299Z,6.60
2017-12-04T04:37:27.670Z,6.60
2017-12-04T04:39:55.979Z,6.60
2017-12-04T04:42:25.051Z,6.60
2017-12-04T04:44:53.427Z,6.70
2017-12-04T04:47:21.747Z,6.70
2017-12-04T04:49:50.070Z,6.70
2017-12-04T04:52:18.439Z,6.80
2017-12-04T04:54:46.730Z,6.80
2017-12-04T04:57:15.051Z,6.80
2017-12-04T04:59:43.455Z,6.80
2017-12-04T05:02:11.755Z,6.80
2017-12-04T05:04:40.063Z,6.70
2017-12-04T05:07:08.444Z,6.70
2017-12-04T05:09:37.539Z,6.70
2017-12-04T05:12:05.840Z,6.70
2017-12-04T05:14:34.218Z,6.80
2017-12-04T05:17:02.547Z,6.80
2017-12-04T05:19:30.867Z,6.90
2017-12-04T05:22:00.731Z,6.80
2017-12-04T05:24:29.031Z,6.80
2017-12-04T05:26:57.319Z,6.80
2017-12-04T05:29:26.790Z,6.90
2017-12-04T05:31:55.842Z,6.90
2017-12-04T05:34:24.175Z,6.90
2017-12-04T05:36:54.030Z,6.90
2017-12-04T05:39:22.318Z,6.80
2017-12-04T05:41:50.622Z,6.90
2017-12-04T05:44:18.982Z,6.90
2017-12-04T05:46:47.303Z,6.90
2017-12-04T05:49:15.596Z,7.00
2017-12-04T05:51:45.460Z,6.90
2017-12-04T05:54:13.807Z,7.00
2017-12-04T05:56:42.877Z,6.90
2017-12-04T05:59:11.975Z,7.00
2017-12-04T06:01:40.313Z,6.90
2017-12-04T06:04:08.614Z,7.00
2017-12-04T06:06:37.383Z,6.90
2017-12-04T06:09:05.678Z,6.90
2017-12-04T06:11:34.062Z,6.90
2017-12-04T06:14:02.446Z,6.90
2017-12-04T06:16:30.762Z,6.80
2017-12-04T06:19:00.206Z,6.90
2017-12-04T06:21:28.574Z,7.00
2017-12-04T06:23:56.881Z,6.90
2017-12-04T06:26:25.195Z,7.00
2017-12-04T06:28:54.330Z,7.00
2017-12-04T06:31:22.662Z,7.10
2017-12-04T06:33:50.963Z,7.10
2017-12-04T06:36:19.314Z,7.10
2017-12-04T06:38:47.635Z,7.00
2017-12-04T06:41:15.955Z,7.00
2017-12-04T06:43:44.317Z,7.00
2017-12-04T06:46:12.998Z,7.10
2017-12-04T06:48:41.524Z,7.00
2017-12-04T06:51:11.396Z,7.10
2017-12-04T06:53:39.711Z,7.10
2017-12-04T06:56:08.007Z,7.10
2017-12-04T06:58:36.358Z,7.10
2017-12-04T07:01:05.460Z,7.20
2017-12-04T07:03:33.802Z,7.20
2017-12-04T07:06:02.182Z,7.10
2017-12-04T07:08:30.471Z,7.10
2017-12-04T07:10:58.783Z,7.10
2017-12-04T07:13:27.180Z,7.00
2017-12-04T07:15:55.491Z,7.00
2017-12-04T07:18:23.807Z,7.00
2017-12-04T07:20:52.561Z,7.00
2017-12-04T07:23:20.878Z,7.10
2017-12-04T07:25:49.182Z,7.10
2017-12-04T07:28:17.548Z,7.10
2017-12-04T07:30:45.867Z,7.10
2017-12-04T07:33:14.187Z,7.10
2017-12-04T07:35:43.323Z,7.10
2017-12-04T07:38:11.647Z,7.10
2017-12-04T07:43:09.569Z,7.10
2017-12-04T07:47:48.927Z,7.20
2017-12-04T07:50:18.909Z,7.20
2017-12-04T07:52:47.213Z,7.20
2017-12-04T07:55:15.498Z,7.20
2017-12-04T07:57:43.857Z,7.30
2017-12-04T08:00:12.577Z,7.20
2017-12-04T08:02:40.895Z,7.30
2017-12-04T08:05:09.286Z,7.30
2017-12-04T08:07:37.579Z,7.20
2017-12-04T08:10:06.640Z,7.30
2017-12-04T08:12:34.986Z,7.30
2017-12-04T08:15:03.274Z,7.20
2017-12-04T08:17:31.586Z,7.30
2017-12-04T08:19:59.942Z,7.20
2017-12-04T08:22:28.238Z,7.20
2017-12-04T08:24:56.566Z,7.30
2017-12-04T08:27:24.965Z,7.40
2017-12-04T08:29:53.262Z,7.30
2017-12-04T08:32:21.634Z,7.40
2017-12-04T08:34:49.994Z,7.50
2017-12-04T08:37:19.807Z,7.40
2017-12-04T08:39:48.095Z,7.50
2017-12-04T08:42:18.383Z,7.60
2017-12-04T08:44:46.731Z,7.60
2017-12-04T08:47:15.795Z,7.60
2017-12-04T08:49:44.159Z,7.60
2017-12-04T08:52:12.476Z,7.60
2017-12-04T08:54:40.788Z,7.50
2017-12-04T08:57:09.153Z,7.60
2017-12-04T08:59:37.447Z,7.50
2017-12-04T09:02:06.523Z,7.50
2017-12-04T09:04:39.721Z,7.50
2017-12-04T09:07:04.023Z,7.60
2017-12-04T09:09:32.322Z,7.60
2017-12-04T09:12:00.690Z,7.60
2017-12-04T09:14:28.967Z,7.70
2017-12-04T09:16:57.668Z,7.70
2017-12-04T09:19:26.023Z,7.70
2017-12-04T09:21:55.135Z,7.80
2017-12-04T09:24:23.450Z,7.80
2017-12-04T09:26:51.809Z,7.80
2017-12-04T09:29:20.097Z,7.70
2017-12-04T09:31:48.456Z,7.80
2017-12-04T09:34:16.792Z,7.80
2017-12-04T09:36:45.094Z,7.90
2017-12-04T09:39:13.382Z,7.90
2017-12-04T09:41:41.752Z,7.80
2017-12-04T09:44:10.818Z,7.90
2017-12-04T09:46:39.199Z,7.90
2017-12-04T09:49:07.558Z,7.90
2017-12-04T09:51:35.891Z,8.00
2017-12-04T09:54:04.196Z,8.00
2017-12-04T09:56:32.550Z,8.10
2017-12-04T09:59:00.854Z,8.10
2017-12-04T10:01:29.147Z,8.20
2017-12-04T10:03:58.436Z,8.20
2017-12-04T10:06:26.750Z,8.20
2017-12-04T10:08:55.131Z,8.20
2017-12-04T10:11:24.252Z,8.10
2017-12-04T10:13:53.348Z,8.10
2017-12-04T10:16:21.649Z,8.20
2017-12-04T10:18:50.402Z,8.20
2017-12-04T10:21:18.717Z,8.20
2017-12-04T10:23:47.011Z,8.10
2017-12-04T10:26:15.371Z,8.20
2017-12-04T10:28:43.666Z,8.20
2017-12-04T10:31:11.974Z,8.10
2017-12-04T10:33:40.314Z,8.10
2017-12-04T10:36:08.599Z,8.10
2017-12-04T10:38:37.678Z,8.20
2017-12-04T10:41:06.043Z,8.30
2017-12-04T10:43:34.345Z,8.30
2017-12-04T10:46:02.656Z,8.30
2017-12-04T10:48:32.147Z,8.30
2017-12-04T10:51:01.202Z,8.20
2017-12-04T10:53:29.503Z,8.20
2017-12-04T10:55:57.872Z,8.30
2017-12-04T10:58:26.159Z,8.30
2017-12-04T11:00:54.454Z,8.30
2017-12-04T11:03:22.818Z,8.40
2017-12-04T11:05:51.117Z,8.40
2017-12-04T11:08:19.428Z,8.40
2017-12-04T11:10:48.056Z,8.50
2017-12-04T11:13:16.382Z,8.50
2017-12-04T11:15:44.687Z,8.50
2017-12-04T11:18:13.055Z,8.50
2017-12-04T11:20:41.364Z,8.60
2017-12-04T11:23:09.671Z,8.50
2017-12-04T11:25:38.036Z,8.60
2017-12-04T11:28:06.361Z,8.50
2017-12-04T11:30:35.083Z,8.50
2017-12-04T11:33:04.573Z,8.50
2017-12-04T11:35:34.027Z,8.40
2017-12-04T11:38:02.333Z,8.50
2017-12-04T11:40:30.695Z,8.50
2017-12-04T11:43:00.524Z,8.50
2017-12-04T11:45:29.590Z,8.50
2017-12-04T11:47:58.704Z,8.60
2017-12-04T11:50:27.022Z,8.50
2017-12-04T11:52:55.327Z,8.60
2017-12-04T11:55:23.683Z,8.60
2017-12-04T11:57:52.774Z,8.60
2017-12-04T12:00:21.083Z,8.70
2017-12-04T12:02:49.439Z,8.70
2017-12-04T12:05:18.502Z,8.70
2017-12-04T12:07:46.919Z,8.70
2017-12-04T12:10:15.281Z,8.70
2017-12-04T12:12:43.626Z,8.70
2017-12-04T12:15:11.947Z,8.80
2017-12-04T12:17:41.062Z,8.80
2017-12-04T12:20:10.127Z,8.80
2017-12-04T12:22:38.439Z,8.90
2017-12-04T12:25:06.814Z,8.90
2017-12-04T12:27:35.126Z,8.90
2017-12-04T12:30:03.448Z,9.00
2017-12-04T12:32:31.811Z,9.00
2017-12-04T12:35:00.135Z,9.00
2017-12-04T12:37:28.465Z,9.00
2017-12-04T12:39:56.832Z,9.10
2017-12-04T12:42:25.134Z,9.10
2017-12-04T12:44:54.204Z,9.20
2017-12-04T12:47:22.558Z,9.10
2017-12-04T12:49:51.852Z,9.10
2017-12-04T12:52:20.939Z,9.10
2017-12-04T12:54:49.586Z,9.10
2017-12-04T12:57:17.912Z,9.10
2017-12-04T12:59:48.394Z,9.10
2017-12-04T13:02:16.760Z,9.20
2017-12-04T13:04:45.055Z,9.20
2017-12-04T13:07:13.358Z,9.30
2017-12-04T13:09:42.482Z,9.30
2017-12-04T13:12:10.784Z,9.30
2017-12-04T13:14:39.191Z,9.30
2017-12-04T13:17:07.543Z,9.30
2017-12-04T13:19:35.841Z,9.30
2017-12-04T13:22:04.160Z,9.30
2017-12-04T13:24:33.303Z,9.30
2017-12-04T13:27:02.364Z,9.30
2017-12-04T13:29:30.638Z,9.30
2017-12-04T13:32:10.862Z,9.20
2017-12-04T13:34:51.161Z,9.30
2017-12-04T13:37:22.390Z,9.20
2017-12-04T13:42:20.202Z,9.40
2017-12-04T13:44:49.686Z,9.30
2017-12-04T13:47:17.977Z,9.40
2017-12-04T13:49:46.262Z,9.40
2017-12-04T13:52:14.615Z,9.40
2017-12-04T13:54:42.907Z,9.40
2017-12-04T13:57:11.211Z,9.50
2017-12-04T13:59:39.549Z,9.40
2017-12-04T14:02:07.847Z,9.40
2017-12-04T14:04:36.211Z,9.40
2017-12-04T14:07:04.959Z,9.40
2017-12-04T14:09:33.266Z,9.40
2017-12-04T14:12:02.332Z,9.40
2017-12-04T14:14:31.116Z,9.50
2017-12-04T14:16:59.455Z,9.50
2017-12-04T14:19:27.738Z,9.60
2017-12-04T14:21:56.096Z,9.70
2017-12-04T14:24:24.400Z,9.60
2017-12-04T14:26:52.742Z,9.70
2017-12-04T14:29:21.095Z,9.80
2017-12-04T14:31:49.426Z,9.70
2017-12-04T14:34:18.128Z,9.60
2017-12-04T14:36:47.259Z,9.60
2017-12-04T14:39:16.302Z,9.60
2017-12-04T14:41:44.585Z,9.60
2017-12-04T14:44:13.327Z,9.60
2017-12-04T14:46:41.601Z,9.70
2017-12-04T14:49:09.967Z,9.60
2017-12-04T14:51:38.314Z,9.60
2017-12-04T14:54:06.602Z,9.50
2017-12-04T14:56:34.903Z,9.60
2017-12-04T14:59:04.138Z,9.50
2017-12-04T15:01:33.244Z,9.50
2017-12-04T15:04:01.531Z,9.50
2017-12-04T15:06:29.899Z,9.40
2017-12-04T15:08:58.479Z,9.50
2017-12-04T15:11:26.879Z,9.40
2017-12-04T15:16:24.945Z,9.40
2017-12-04T15:18:53.790Z,9.30
2017-12-04T15:21:23.116Z,9.30
2017-12-04T15:23:51.405Z,9.20
2017-12-04T15:26:20.511Z,9.20
2017-12-04T15:28:48.943Z,9.30
2017-12-04T15:31:17.708Z,9.20
2017-12-04T15:33:46.027Z,9.20
2017-12-04T15:36:14.594Z,9.20
2017-12-04T15:38:43.735Z,9.20
2017-12-04T15:41:12.417Z,9.10
2017-12-04T15:43:41.310Z,9.10
2017-12-04T15:46:09.648Z,9.10
2017-12-04T15:48:39.182Z,9.50
2017-12-04T15:51:07.550Z,9.10
2017-12-04T15:53:35.867Z,9.00
2017-12-04T15:56:04.219Z,9.00
2017-12-04T15:58:32.813Z,9.00
2017-12-04T16:01:01.127Z,9.00
2017-12-04T16:03:30.549Z,9.00
2017-12-04T16:05:58.954Z,9.00
2017-12-04T16:08:27.438Z,9.00
2017-12-04T16:10:56.563Z,9.10
2017-12-04T16:13:25.824Z,9.00
2017-12-04T16:15:54.530Z,9.00
2017-12-04T16:18:22.815Z,9.00
2017-12-04T16:20:51.241Z,9.00
2017-12-04T16:23:19.641Z,9.10
2017-12-04T16:25:48.105Z,9.00
2017-12-04T16:28:17.306Z,9.10
2017-12-04T16:30:45.822Z,9.00
2017-12-04T16:33:14.114Z,8.90
2017-12-04T16:35:42.522Z,8.90
2017-12-04T16:38:10.812Z,8.90
2017-12-04T16:40:39.175Z,8.90
2017-12-04T16:43:08.391Z,9.00
2017-12-04T16:45:36.674Z,9.00
2017-12-04T16:48:05.040Z,9.00
2017-12-04T16:50:34.174Z,9.00
2017-12-04T16:53:02.711Z,9.00
2017-12-04T16:58:01.959Z,9.00
2017-12-04T17:00:30.767Z,8.90
2017-12-04T17:03:00.204Z,8.90
2017-12-04T17:05:29.126Z,8.80
2017-12-04T17:07:57.478Z,8.90
2017-12-04T17:10:25.789Z,8.90
2017-12-04T17:12:55.148Z,8.90
2017-12-04T17:15:23.494Z,8.90
2017-12-04T17:17:51.770Z,8.90
2017-12-04T17:20:20.243Z,8.90
2017-12-04T17:22:48.570Z,8.90
2017-12-04T17:25:16.974Z,8.80
2017-12-04T17:27:45.855Z,8.90
2017-12-04T17:30:14.566Z,9.00
2017-12-04T17:32:42.871Z,8.90
2017-12-04T17:35:13.218Z,8.90
2017-12-04T17:37:41.510Z,8.90
2017-12-04T17:40:09.817Z,8.80
2017-12-04T17:42:38.598Z,8.80
2017-12-04T17:45:06.882Z,8.80
2017-12-04T17:47:35.156Z,8.90
2017-12-04T17:52:33.030Z,8.80
2017-12-04T17:55:01.315Z,8.80
2017-12-04T17:57:29.655Z,8.80
2017-12-04T17:59:57.938Z,8.80
2017-12-04T18:02:26.230Z,8.80
2017-12-04T18:04:54.580Z,8.80
2017-12-04T18:07:22.930Z,8.80
2017-12-04T18:09:51.632Z,8.80
2017-12-04T18:12:19.993Z,8.80
2017-12-04T18:14:49.789Z,8.80
2017-12-04T18:17:18.077Z,8.80
2017-12-04T18:22:20.842Z,8.70
2017-12-04T18:27:20.202Z,8.80
2017-12-04T18:29:49.314Z,8.80
2017-12-04T18:32:17.622Z,8.70
2017-12-04T18:34:47.130Z,8.80
2017-12-04T18:37:16.312Z,8.70
2017-12-04T18:39:46.210Z,8.70
2017-12-04T18:42:14.542Z,8.80
2017-12-04T18:44:42.893Z,8.80
2017-12-04T18:47:12.087Z,8.70
2017-12-04T18:49:40.448Z,8.70
2017-12-04T18:52:09.502Z,8.70
2017-12-04T18:54:37.794Z,8.80
2017-12-04T18:57:06.914Z,8.80
2017-12-04T18:59:35.231Z,8.70
2017-12-04T19:02:03.510Z,8.70
2017-12-04T19:04:32.250Z,8.70
2017-12-04T19:07:00.586Z,8.70
2017-12-04T19:09:28.883Z,8.60
2017-12-04T19:11:57.814Z,8.60
2017-12-04T19:14:26.493Z,8.60
2017-12-04T19:16:54.792Z,8.60
2017-12-04T19:19:23.126Z,8.60
2017-12-04T19:21:51.410Z,8.50
2017-12-04T19:24:19.686Z,8.50
2017-12-04T19:26:48.066Z,8.50
2017-12-04T19:29:17.123Z,8.50
2017-12-04T19:31:45.398Z,8.50
2017-12-04T19:34:14.533Z,8.60
2017-12-04T19:36:42.831Z,8.50
2017-12-04T19:39:11.145Z,8.50
2017-12-04T19:41:39.872Z,8.60
2017-12-04T19:44:08.163Z,8.60
2017-12-04T19:46:36.678Z,8.60
2017-12-04T19:49:05.030Z,8.60
2017-12-04T19:51:34.443Z,8.60
2017-12-04T19:54:02.717Z,8.60
2017-12-04T19:56:31.070Z,8.60
2017-12-04T19:59:00.509Z,8.60
2017-12-04T20:01:28.837Z,8.70
2017-12-04T20:03:57.166Z,8.60
2017-12-04T20:06:47.005Z,8.60
2017-12-04T20:09:16.335Z,8.60
2017-12-04T20:11:45.793Z,8.70
2017-12-04T20:14:14.139Z,8.70
2017-12-04T20:16:42.534Z,8.70
2017-12-04T20:19:10.870Z,8.60
2017-12-04T20:21:39.951Z,8.60
2017-12-04T20:24:08.374Z,8.60
2017-12-04T20:26:36.703Z,8.50
2017-12-04T20:29:06.324Z,8.60
2017-12-04T20:31:35.013Z,8.60
2017-12-04T20:34:04.079Z,8.50
2017-12-04T20:36:32.378Z,8.50
2017-12-04T20:39:00.718Z,8.50
2017-12-04T20:41:29.772Z,8.50
2017-12-04T20:43:59.562Z,8.50
2017-12-04T20:46:27.940Z,8.50
2017-12-04T20:48:56.994Z,8.40
2017-12-04T20:51:25.682Z,8.30
2017-12-04T20:53:54.030Z,8.30
2017-12-04T20:56:22.318Z,8.30
2017-12-04T20:58:50.618Z,8.30
2017-12-04T21:03:50.414Z,8.20
2017-12-04T21:06:18.710Z,8.10
2017-12-04T21:08:59.714Z,8.10
2017-12-04T21:14:37.089Z,8.10
2017-12-04T21:17:17.730Z,8.10
2017-12-04T21:21:54.391Z,8.10
2017-12-04T21:24:23.810Z,8.00
2017-12-04T21:26:52.862Z,8.00
2017-12-04T21:29:21.254Z,8.00
2017-12-04T21:31:49.569Z,8.00
2017-12-04T21:34:17.890Z,8.00
2017-12-04T21:36:46.246Z,8.00
2017-12-04T21:39:14.915Z,8.00
2017-12-04T21:41:43.222Z,8.10
2017-12-04T21:44:12.343Z,8.10
2017-12-04T21:46:40.622Z,8.00
2017-12-04T21:49:10.419Z,7.90
2017-12-04T21:51:39.921Z,8.00
2017-12-04T21:54:08.970Z,8.00
2017-12-04T21:56:38.035Z,7.90
2017-12-04T21:59:06.945Z,8.00
2017-12-04T22:01:35.236Z,8.00
2017-12-04T22:04:03.502Z,7.90
2017-12-04T22:06:32.625Z,8.00
2017-12-04T22:09:00.907Z,8.00
2017-12-04T22:11:29.967Z,7.90
2017-12-04T22:13:59.078Z,7.90
2017-12-04T22:16:27.358Z,7.90
2017-12-04T22:18:55.656Z,8.00
2017-12-04T22:21:24.763Z,8.00
2017-12-04T22:23:54.179Z,8.00
2017-12-04T22:26:23.261Z,8.10
2017-12-04T22:28:51.604Z,8.10
2017-12-04T22:31:21.582Z,8.10
2017-12-04T22:33:49.870Z,8.30
2017-12-04T22:36:19.722Z,8.30
2017-12-04T22:38:48.006Z,8.30
2017-12-04T22:41:17.061Z,8.20
2017-12-04T22:43:46.175Z,8.20
2017-12-04T22:46:14.471Z,8.20
2017-12-04T22:48:42.757Z,8.20
2017-12-04T22:51:11.878Z,8.10
2017-12-04T22:53:40.959Z,8.00
2017-12-04T22:56:09.251Z,8.10
2017-12-04T22:58:37.809Z,8.00
2017-12-04T23:01:06.898Z,8.00
2017-12-04T23:03:36.043Z,8.10
2017-12-04T23:06:04.405Z,8.00
2017-12-04T23:08:33.094Z,7.90
2017-12-04T23:13:30.998Z,8.00
2017-12-04T23:15:59.375Z,7.90
2017-12-04T23:20:57.652Z,8.00
2017-12-04T23:23:26.022Z,7.80
2017-12-04T23:25:54.389Z,7.80
2017-12-04T23:30:53.038Z,7.70
2017-12-04T23:33:21.443Z,7.80
2017-12-04T23:35:50.539Z,7.80
2017-12-04T23:38:19.578Z,7.90
2017-12-04T23:40:49.434Z,7.80
2017-12-04T23:43:17.784Z,7.80
2017-12-04T23:45:46.838Z,7.80
2017-12-04T23:48:15.121Z,7.70
2017-12-04T23:50:44.225Z,7.70
2017-12-04T23:53:13.270Z,7.70
2017-12-04T23:55:41.595Z,7.70
2017-12-04T23:58:09.979Z,7.80
